Airfield :
LOGIN :

Register | Disclaimer

   EN    FR    IT 

 










Legend :    VFR   Marginal VFR   IFR   Intensive IFR   Very Intensive IFR
Visi :
Ceiling :
>= 8 km
>= 3000ft
5 to 8 km
1000 to 3000 ft
1500m to 5 km
500 to 1000 ft
800 to 1500m
200 to 500 ft
< 800m
< 200 ft
Symbols :   Thunderstorms  Fog  Heavy snow  Heavy precipitations  Wind > 20 kt
SIGMETs :     Misc.  Thunderstorms  Icing  Turbulence  Mountain Waves  Volcanic Ashes






- Airport Elevation : 634 ft
- IATA code : MXX


ESKM - Mora

CURRENT METAR :
  • 191520Z AUTO 15006KT 9999 SCT014/// BKN018/// OVC027/// 05/05 Q1008

EXPIRED METARs :
  • 191450Z AUTO 14008KT 9999 BKN014/// BKN025/// OVC051/// 05/05 Q1008
  • 191420Z AUTO 15007KT 9999 BKN014/// OVC049/// 05/05 Q1008
  • 191350Z AUTO 15009KT 9999 FEW003/// OVC009/// 06/06 Q1007
  • 191320Z AUTO 13007KT 9999 OVC003/// 06/06 Q1007 RESHUP
  • 191250Z AUTO 13006KT 8000 UP OVC003/// 06/06 Q1007 RERA RESHUP

TAF N/A



MET'MAP, your aeronautical weather chart ! - Copyright ORBIFLY December 2007 - Disclaimer

ORBIFLY MET'MAP TEAM :

Programming & Development : Alexandra Zaïnal
Concept & Development : Baudouin d'Aumeries
Co-Development & Prog : Marc-Olivier Méhu
Technical & hardware support : Manuel Goepfert

Contact : metmap@orbifly.com




SOURCES & CREDITS :

   NOAA